sensor_id;sensor_type;location;lat;lon;timestamp;P1;durP1;ratioP1;P2;durP2;ratioP2
4504;SDS011;2265;48.794;9.520;2024-01-15T00:02:07;28.67;;;9.10;;
4504;SDS011;2265;48.794;9.520;2024-01-15T00:04:36;35.63;;;9.40;;
4504;SDS011;2265;48.794;9.520;2024-01-15T00:07:04;20.67;;;8.40;;
4504;SDS011;2265;48.794;9.520;2024-01-15T00:09:31;31.67;;;9.60;;
4504;SDS011;2265;48.794;9.520;2024-01-15T00:11:58;26.23;;;7.83;;
4504;SDS011;2265;48.794;9.520;2024-01-15T00:14:26;24.80;;;8.40;;
4504;SDS011;2265;48.794;9.520;2024-01-15T00:16:55;23.37;;;7.80;;
4504;SDS011;2265;48.794;9.520;2024-01-15T00:19:23;24.73;;;8.83;;
4504;SDS011;2265;48.794;9.520;2024-01-15T00:21:52;30.70;;;10.70;;
4504;SDS011;2265;48.794;9.520;2024-01-15T00:24:19;26.23;;;8.33;;
4504;SDS011;2265;48.794;9.520;2024-01-15T00:26:47;32.63;;;10.00;;
4504;SDS011;2265;48.794;9.520;2024-01-15T00:29:14;30.10;;;10.50;;
4504;SDS011;2265;48.794;9.520;2024-01-15T00:31:41;35.77;;;9.73;;
4504;SDS011;2265;48.794;9.520;2024-01-15T00:34:08;30.47;;;9.30;;
4504;SDS011;2265;48.794;9.520;2024-01-15T00:36:37;40.43;;;11.90;;
4504;SDS011;2265;48.794;9.520;2024-01-15T00:39:04;29.73;;;9.43;;
4504;SDS011;2265;48.794;9.520;2024-01-15T00:41:31;29.30;;;8.93;;
4504;SDS011;2265;48.794;9.520;2024-01-15T00:43:58;29.87;;;8.63;;
4504;SDS011;2265;48.794;9.520;2024-01-15T00:46:25;31.63;;;9.60;;
4504;SDS011;2265;48.794;9.520;2024-01-15T00:48:52;35.40;;;9.17;;
4504;SDS011;2265;48.794;9.520;2024-01-15T00:51:20;30.10;;;8.77;;
4504;SDS011;2265;48.794;9.520;2024-01-15T00:53:48;27.90;;;8.40;;
4504;SDS011;2265;48.794;9.520;2024-01-15T00:56:15;20.80;;;8.17;;
4504;SDS011;2265;48.794;9.520;2024-01-15T00:58:42;23.63;;;8.40;;
4504;SDS011;2265;48.794;9.520;2024-01-15T01:01:09;28.17;;;8.50;;
4504;SDS011;2265;48.794;9.520;2024-01-15T01:03:37;29.57;;;7.77;;
4504;SDS011;2265;48.794;9.520;2024-01-15T01:06:04;32.73;;;9.70;;
4504;SDS011;2265;48.794;9.520;2024-01-15T01:08:32;24.93;;;7.60;;
4504;SDS011;2265;48.794;9.520;2024-01-15T01:11:00;26.40;;;8.83;;
4504;SDS011;2265;48.794;9.520;2024-01-15T01:13:27;23.20;;;7.40;;
4504;SDS011;2265;48.794;9.520;2024-01-15T01:15:54;31.47;;;9.43;;
4504;SDS011;2265;48.794;9.520;2024-01-15T01:18:22;25.97;;;9.37;;
4504;SDS011;2265;48.794;9.520;2024-01-15T01:20:49;28.00;;;9.50;;
4504;SDS011;2265;48.794;9.520;2024-01-15T01:23:16;30.13;;;8.40;;
4504;SDS011;2265;48.794;9.520;2024-01-15T01:25:43;26.33;;;8.23;;
4504;SDS011;2265;48.794;9.520;2024-01-15T01:28:11;24.60;;;8.40;;
4504;SDS011;2265;48.794;9.520;2024-01-15T01:30:40;29.37;;;8.73;;
4504;SDS011;2265;48.794;9.520;2024-01-15T01:33:07;28.97;;;8.40;;
4504;SDS011;2265;48.794;9.520;2024-01-15T01:35:34;25.63;;;8.40;;
4504;SDS011;2265;48.794;9.520;2024-01-15T01:38:01;26.33;;;8.30;;
4504;SDS011;2265;48.794;9.520;2024-01-15T01:40:28;26.87;;;8.33;;
4504;SDS011;2265;48.794;9.520;2024-01-15T01:42:55;25.50;;;8.03;;
4504;SDS011;2265;48.794;9.520;2024-01-15T01:45:24;28.17;;;7.80;;
4504;SDS011;2265;48.794;9.520;2024-01-15T01:47:51;22.60;;;8.03;;
4504;SDS011;2265;48.794;9.520;2024-01-15T01:50:19;24.20;;;8.47;;
4504;SDS011;2265;48.794;9.520;2024-01-15T01:52:47;36.83;;;9.33;;
4504;SDS011;2265;48.794;9.520;2024-01-15T01:55:15;22.93;;;8.80;;
4504;SDS011;2265;48.794;9.520;2024-01-15T01:57:42;35.33;;;10.87;;
4504;SDS011;2265;48.794;9.520;2024-01-15T02:00:11;34.40;;;11.20;;
4504;SDS011;2265;48.794;9.520;2024-01-15T02:02:41;32.60;;;9.37;;
4504;SDS011;2265;48.794;9.520;2024-01-15T02:05:08;32.17;;;9.03;;
4504;SDS011;2265;48.794;9.520;2024-01-15T02:07:36;27.37;;;8.10;;
4504;SDS011;2265;48.794;9.520;2024-01-15T02:10:03;24.80;;;8.50;;
4504;SDS011;2265;48.794;9.520;2024-01-15T02:12:31;27.23;;;9.07;;
4504;SDS011;2265;48.794;9.520;2024-01-15T02:14:59;21.43;;;7.27;;
4504;SDS011;2265;48.794;9.520;2024-01-15T02:17:26;23.17;;;7.20;;
4504;SDS011;2265;48.794;9.520;2024-01-15T02:19:54;30.47;;;8.30;;
4504;SDS011;2265;48.794;9.520;2024-01-15T02:22:21;29.37;;;8.30;;
4504;SDS011;2265;48.794;9.520;2024-01-15T02:24:50;21.00;;;6.60;;
4504;SDS011;2265;48.794;9.520;2024-01-15T02:27:17;20.73;;;5.80;;
4504;SDS011;2265;48.794;9.520;2024-01-15T02:29:45;18.30;;;7.20;;
4504;SDS011;2265;48.794;9.520;2024-01-15T02:32:12;18.67;;;5.77;;
4504;SDS011;2265;48.794;9.520;2024-01-15T02:34:40;25.00;;;7.30;;
4504;SDS011;2265;48.794;9.520;2024-01-15T02:37:10;18.60;;;6.23;;
4504;SDS011;2265;48.794;9.520;2024-01-15T02:39:37;17.00;;;5.90;;
4504;SDS011;2265;48.794;9.520;2024-01-15T02:42:06;24.77;;;7.37;;
4504;SDS011;2265;48.794;9.520;2024-01-15T02:44:33;19.20;;;7.03;;
4504;SDS011;2265;48.794;9.520;2024-01-15T02:47:00;21.80;;;7.30;;
4504;SDS011;2265;48.794;9.520;2024-01-15T02:49:27;23.20;;;7.70;;
4504;SDS011;2265;48.794;9.520;2024-01-15T02:51:54;15.37;;;6.93;;
4504;SDS011;2265;48.794;9.520;2024-01-15T02:54:21;18.80;;;6.53;;
4504;SDS011;2265;48.794;9.520;2024-01-15T02:56:48;13.20;;;4.60;;
4504;SDS011;2265;48.794;9.520;2024-01-15T02:59:17;21.57;;;5.63;;
4504;SDS011;2265;48.794;9.520;2024-01-15T03:01:44;14.47;;;5.57;;
4504;SDS011;2265;48.794;9.520;2024-01-15T03:04:11;15.83;;;6.23;;
4504;SDS011;2265;48.794;9.520;2024-01-15T03:06:39;21.60;;;7.00;;
4504;SDS011;2265;48.794;9.520;2024-01-15T03:09:06;17.17;;;5.40;;
4504;SDS011;2265;48.794;9.520;2024-01-15T03:11:36;13.50;;;6.50;;
4504;SDS011;2265;48.794;9.520;2024-01-15T03:14:04;20.07;;;6.97;;
4504;SDS011;2265;48.794;9.520;2024-01-15T03:16:33;15.67;;;6.17;;
4504;SDS011;2265;48.794;9.520;2024-01-15T03:19:00;19.73;;;6.93;;
4504;SDS011;2265;48.794;9.520;2024-01-15T03:21:28;25.13;;;6.47;;
4504;SDS011;2265;48.794;9.520;2024-01-15T03:23:55;22.03;;;7.00;;
4504;SDS011;2265;48.794;9.520;2024-01-15T03:26:22;18.60;;;6.87;;
4504;SDS011;2265;48.794;9.520;2024-01-15T03:28:49;20.70;;;6.60;;
4504;SDS011;2265;48.794;9.520;2024-01-15T03:31:16;12.33;;;5.43;;
4504;SDS011;2265;48.794;9.520;2024-01-15T03:33:45;19.80;;;6.60;;
4504;SDS011;2265;48.794;9.520;2024-01-15T03:36:12;18.27;;;5.97;;
4504;SDS011;2265;48.794;9.520;2024-01-15T03:38:40;13.60;;;4.57;;
4504;SDS011;2265;48.794;9.520;2024-01-15T03:41:08;10.90;;;5.10;;
4504;SDS011;2265;48.794;9.520;2024-01-15T03:43:35;12.80;;;4.80;;
4504;SDS011;2265;48.794;9.520;2024-01-15T03:46:02;17.63;;;5.00;;
4504;SDS011;2265;48.794;9.520;2024-01-15T03:48:30;15.00;;;5.17;;
4504;SDS011;2265;48.794;9.520;2024-01-15T03:50:59;11.10;;;5.00;;
4504;SDS011;2265;48.794;9.520;2024-01-15T03:53:27;16.83;;;5.90;;
4504;SDS011;2265;48.794;9.520;2024-01-15T03:55:54;11.83;;;4.97;;
4504;SDS011;2265;48.794;9.520;2024-01-15T03:58:21;10.40;;;4.77;;
4504;SDS011;2265;48.794;9.520;2024-01-15T04:00:48;13.63;;;5.10;;
4504;SDS011;2265;48.794;9.520;2024-01-15T04:03:18;10.63;;;4.33;;
4504;SDS011;2265;48.794;9.520;2024-01-15T04:05:45;15.47;;;5.33;;
4504;SDS011;2265;48.794;9.520;2024-01-15T04:08:14;12.57;;;5.30;;
4504;SDS011;2265;48.794;9.520;2024-01-15T04:10:41;13.90;;;4.80;;
4504;SDS011;2265;48.794;9.520;2024-01-15T04:13:08;12.47;;;4.60;;
4504;SDS011;2265;48.794;9.520;2024-01-15T04:15:35;14.80;;;4.93;;
4504;SDS011;2265;48.794;9.520;2024-01-15T04:18:05;14.67;;;4.70;;
4504;SDS011;2265;48.794;9.520;2024-01-15T04:20:32;8.17;;;4.40;;
4504;SDS011;2265;48.794;9.520;2024-01-15T04:23:00;12.60;;;5.30;;
4504;SDS011;2265;48.794;9.520;2024-01-15T04:25:28;14.10;;;4.33;;
4504;SDS011;2265;48.794;9.520;2024-01-15T04:27:55;12.53;;;5.00;;
4504;SDS011;2265;48.794;9.520;2024-01-15T04:30:22;12.43;;;4.47;;
4504;SDS011;2265;48.794;9.520;2024-01-15T04:32:49;14.00;;;4.67;;
4504;SDS011;2265;48.794;9.520;2024-01-15T04:35:19;13.97;;;4.40;;
4504;SDS011;2265;48.794;9.520;2024-01-15T04:37:46;11.03;;;4.43;;
4504;SDS011;2265;48.794;9.520;2024-01-15T04:40:15;11.97;;;4.50;;
4504;SDS011;2265;48.794;9.520;2024-01-15T04:42:43;18.23;;;4.70;;
4504;SDS011;2265;48.794;9.520;2024-01-15T04:45:11;16.67;;;5.73;;
4504;SDS011;2265;48.794;9.520;2024-01-15T04:47:38;13.20;;;4.53;;
4504;SDS011;2265;48.794;9.520;2024-01-15T04:50:06;13.17;;;4.17;;
4504;SDS011;2265;48.794;9.520;2024-01-15T04:52:34;15.13;;;4.87;;
4504;SDS011;2265;48.794;9.520;2024-01-15T04:55:00;11.80;;;4.03;;
4504;SDS011;2265;48.794;9.520;2024-01-15T04:57:28;11.43;;;4.03;;
4504;SDS011;2265;48.794;9.520;2024-01-15T04:59:57;11.00;;;4.70;;
4504;SDS011;2265;48.794;9.520;2024-01-15T05:02:24;12.70;;;4.80;;
4504;SDS011;2265;48.794;9.520;2024-01-15T05:04:51;12.47;;;5.00;;
4504;SDS011;2265;48.794;9.520;2024-01-15T05:07:18;12.83;;;4.23;;
4504;SDS011;2265;48.794;9.520;2024-01-15T05:09:45;11.07;;;4.33;;
4504;SDS011;2265;48.794;9.520;2024-01-15T05:12:12;10.23;;;4.03;;
4504;SDS011;2265;48.794;9.520;2024-01-15T05:14:49;10.43;;;4.30;;
4504;SDS011;2265;48.794;9.520;2024-01-15T05:17:18;13.10;;;4.20;;
4504;SDS011;2265;48.794;9.520;2024-01-15T05:19:45;12.13;;;4.77;;
4504;SDS011;2265;48.794;9.520;2024-01-15T05:22:12;13.43;;;5.33;;
4504;SDS011;2265;48.794;9.520;2024-01-15T05:24:39;14.27;;;5.33;;
4504;SDS011;2265;48.794;9.520;2024-01-15T05:27:06;16.20;;;5.20;;
4504;SDS011;2265;48.794;9.520;2024-01-15T05:29:34;23.57;;;7.10;;
4504;SDS011;2265;48.794;9.520;2024-01-15T05:32:02;17.90;;;6.13;;
4504;SDS011;2265;48.794;9.520;2024-01-15T05:34:31;18.30;;;6.93;;
4504;SDS011;2265;48.794;9.520;2024-01-15T05:36:59;24.43;;;7.13;;
4504;SDS011;2265;48.794;9.520;2024-01-15T05:39:26;18.93;;;6.53;;
4504;SDS011;2265;48.794;9.520;2024-01-15T05:41:53;18.43;;;6.60;;
4504;SDS011;2265;48.794;9.520;2024-01-15T05:44:20;14.83;;;6.37;;
4504;SDS011;2265;48.794;9.520;2024-01-15T05:46:47;15.57;;;6.07;;
4504;SDS011;2265;48.794;9.520;2024-01-15T05:49:14;21.03;;;5.90;;
4504;SDS011;2265;48.794;9.520;2024-01-15T05:51:43;12.40;;;5.20;;
4504;SDS011;2265;48.794;9.520;2024-01-15T05:54:11;12.27;;;4.03;;
4504;SDS011;2265;48.794;9.520;2024-01-15T05:56:38;8.90;;;4.10;;
4504;SDS011;2265;48.794;9.520;2024-01-15T05:59:05;15.10;;;4.47;;
4504;SDS011;2265;48.794;9.520;2024-01-15T06:01:32;15.17;;;4.50;;
4504;SDS011;2265;48.794;9.520;2024-01-15T06:03:59;9.77;;;3.87;;
4504;SDS011;2265;48.794;9.520;2024-01-15T06:06:27;10.00;;;3.70;;
4504;SDS011;2265;48.794;9.520;2024-01-15T06:08:55;11.33;;;4.60;;
4504;SDS011;2265;48.794;9.520;2024-01-15T06:11:29;10.90;;;4.43;;
4504;SDS011;2265;48.794;9.520;2024-01-15T06:13:57;9.97;;;4.20;;
4504;SDS011;2265;48.794;9.520;2024-01-15T06:16:25;13.97;;;4.93;;
4504;SDS011;2265;48.794;9.520;2024-01-15T06:18:55;12.97;;;4.57;;
4504;SDS011;2265;48.794;9.520;2024-01-15T06:21:22;10.63;;;4.30;;
4504;SDS011;2265;48.794;9.520;2024-01-15T06:23:49;13.03;;;4.43;;
4504;SDS011;2265;48.794;9.520;2024-01-15T06:26:17;11.50;;;4.77;;
4504;SDS011;2265;48.794;9.520;2024-01-15T06:28:45;14.37;;;4.97;;
4504;SDS011;2265;48.794;9.520;2024-01-15T06:31:12;12.63;;;4.63;;
4504;SDS011;2265;48.794;9.520;2024-01-15T06:33:39;12.93;;;4.90;;
4504;SDS011;2265;48.794;9.520;2024-01-15T06:36:06;11.10;;;3.90;;
4504;SDS011;2265;48.794;9.520;2024-01-15T06:38:35;16.83;;;5.13;;
4504;SDS011;2265;48.794;9.520;2024-01-15T06:41:03;23.43;;;5.30;;
4504;SDS011;2265;48.794;9.520;2024-01-15T06:43:31;19.27;;;4.77;;
4504;SDS011;2265;48.794;9.520;2024-01-15T06:45:58;10.03;;;4.87;;
4504;SDS011;2265;48.794;9.520;2024-01-15T06:48:27;14.40;;;4.77;;
4504;SDS011;2265;48.794;9.520;2024-01-15T06:50:54;14.23;;;4.87;;
4504;SDS011;2265;48.794;9.520;2024-01-15T06:53:21;12.23;;;4.37;;
4504;SDS011;2265;48.794;9.520;2024-01-15T06:55:51;17.23;;;5.53;;
4504;SDS011;2265;48.794;9.520;2024-01-15T06:58:18;10.33;;;4.90;;
4504;SDS011;2265;48.794;9.520;2024-01-15T07:00:46;13.03;;;4.20;;
4504;SDS011;2265;48.794;9.520;2024-01-15T07:03:13;11.33;;;4.63;;
4504;SDS011;2265;48.794;9.520;2024-01-15T07:05:42;13.83;;;4.87;;
4504;SDS011;2265;48.794;9.520;2024-01-15T07:08:09;8.33;;;3.80;;
4504;SDS011;2265;48.794;9.520;2024-01-15T07:10:36;16.13;;;4.30;;
4504;SDS011;2265;48.794;9.520;2024-01-15T07:13:03;9.57;;;4.50;;
4504;SDS011;2265;48.794;9.520;2024-01-15T07:15:31;12.40;;;4.37;;
4504;SDS011;2265;48.794;9.520;2024-01-15T07:17:59;13.80;;;4.77;;
4504;SDS011;2265;48.794;9.520;2024-01-15T07:20:27;11.27;;;4.50;;
4504;SDS011;2265;48.794;9.520;2024-01-15T07:22:54;14.60;;;4.80;;
4504;SDS011;2265;48.794;9.520;2024-01-15T07:25:22;13.30;;;4.83;;
4504;SDS011;2265;48.794;9.520;2024-01-15T07:27:51;10.77;;;4.37;;
4504;SDS011;2265;48.794;9.520;2024-01-15T07:30:19;10.00;;;4.30;;
4504;SDS011;2265;48.794;9.520;2024-01-15T07:32:47;9.63;;;4.33;;
4504;SDS011;2265;48.794;9.520;2024-01-15T07:35:22;12.53;;;4.70;;
4504;SDS011;2265;48.794;9.520;2024-01-15T07:37:49;9.30;;;3.83;;
4504;SDS011;2265;48.794;9.520;2024-01-15T07:40:18;14.13;;;4.93;;
4504;SDS011;2265;48.794;9.520;2024-01-15T07:42:45;9.10;;;4.77;;
4504;SDS011;2265;48.794;9.520;2024-01-15T07:45:12;16.40;;;4.90;;
4504;SDS011;2265;48.794;9.520;2024-01-15T07:47:39;10.20;;;4.27;;
4504;SDS011;2265;48.794;9.520;2024-01-15T07:50:06;16.80;;;5.40;;
4504;SDS011;2265;48.794;9.520;2024-01-15T07:52:35;12.60;;;4.90;;
4504;SDS011;2265;48.794;9.520;2024-01-15T07:55:02;12.67;;;4.60;;
4504;SDS011;2265;48.794;9.520;2024-01-15T07:57:30;10.07;;;4.27;;
4504;SDS011;2265;48.794;9.520;2024-01-15T07:59:57;12.50;;;4.87;;
4504;SDS011;2265;48.794;9.520;2024-01-15T08:02:25;12.47;;;4.80;;
4504;SDS011;2265;48.794;9.520;2024-01-15T08:04:52;18.20;;;4.97;;
4504;SDS011;2265;48.794;9.520;2024-01-15T08:07:19;11.50;;;4.50;;
4504;SDS011;2265;48.794;9.520;2024-01-15T08:09:47;8.30;;;3.60;;
4504;SDS011;2265;48.794;9.520;2024-01-15T08:12:14;10.10;;;4.30;;
4504;SDS011;2265;48.794;9.520;2024-01-15T08:14:41;8.83;;;3.90;;
4504;SDS011;2265;48.794;9.520;2024-01-15T08:17:09;9.70;;;4.23;;
4504;SDS011;2265;48.794;9.520;2024-01-15T08:19:39;10.50;;;4.60;;
4504;SDS011;2265;48.794;9.520;2024-01-15T08:22:06;10.57;;;3.93;;
4504;SDS011;2265;48.794;9.520;2024-01-15T08:24:33;12.30;;;4.33;;
4504;SDS011;2265;48.794;9.520;2024-01-15T08:27:01;8.83;;;4.10;;
4504;SDS011;2265;48.794;9.520;2024-01-15T08:29:30;11.13;;;4.13;;
4504;SDS011;2265;48.794;9.520;2024-01-15T08:31:58;6.40;;;3.30;;
4504;SDS011;2265;48.794;9.520;2024-01-15T08:34:25;11.30;;;4.40;;
4504;SDS011;2265;48.794;9.520;2024-01-15T08:36:52;10.40;;;4.47;;
4504;SDS011;2265;48.794;9.520;2024-01-15T08:39:20;11.60;;;4.17;;
4504;SDS011;2265;48.794;9.520;2024-01-15T08:41:47;8.00;;;4.10;;
4504;SDS011;2265;48.794;9.520;2024-01-15T08:44:15;9.63;;;4.13;;
4504;SDS011;2265;48.794;9.520;2024-01-15T08:46:45;12.77;;;4.07;;
4504;SDS011;2265;48.794;9.520;2024-01-15T08:49:12;11.10;;;4.50;;
4504;SDS011;2265;48.794;9.520;2024-01-15T08:51:39;11.73;;;4.10;;
4504;SDS011;2265;48.794;9.520;2024-01-15T08:54:07;7.20;;;3.13;;
4504;SDS011;2265;48.794;9.520;2024-01-15T08:56:35;9.67;;;4.13;;
4504;SDS011;2265;48.794;9.520;2024-01-15T08:59:02;11.90;;;3.50;;
4504;SDS011;2265;48.794;9.520;2024-01-15T09:01:30;11.83;;;4.20;;
4504;SDS011;2265;48.794;9.520;2024-01-15T09:03:57;9.53;;;4.07;;
4504;SDS011;2265;48.794;9.520;2024-01-15T09:06:24;6.70;;;3.60;;
4504;SDS011;2265;48.794;9.520;2024-01-15T09:08:52;10.43;;;3.97;;
4504;SDS011;2265;48.794;9.520;2024-01-15T09:11:19;6.43;;;3.30;;
4504;SDS011;2265;48.794;9.520;2024-01-15T09:13:46;13.20;;;4.10;;
4504;SDS011;2265;48.794;9.520;2024-01-15T09:16:13;7.70;;;3.37;;
4504;SDS011;2265;48.794;9.520;2024-01-15T09:18:42;7.67;;;3.53;;
4504;SDS011;2265;48.794;9.520;2024-01-15T09:21:09;7.73;;;3.43;;
4504;SDS011;2265;48.794;9.520;2024-01-15T09:23:37;9.00;;;3.73;;
4504;SDS011;2265;48.794;9.520;2024-01-15T09:26:06;10.17;;;4.10;;
4504;SDS011;2265;48.794;9.520;2024-01-15T09:28:34;6.87;;;3.23;;
4504;SDS011;2265;48.794;9.520;2024-01-15T09:31:02;7.53;;;3.60;;
4504;SDS011;2265;48.794;9.520;2024-01-15T09:33:29;8.80;;;4.10;;
4504;SDS011;2265;48.794;9.520;2024-01-15T09:35:57;6.77;;;3.23;;
4504;SDS011;2265;48.794;9.520;2024-01-15T09:38:29;12.13;;;4.00;;
4504;SDS011;2265;48.794;9.520;2024-01-15T09:40:57;8.90;;;3.77;;
4504;SDS011;2265;48.794;9.520;2024-01-15T09:43:24;8.13;;;3.77;;
4504;SDS011;2265;48.794;9.520;2024-01-15T09:45:51;12.13;;;3.40;;
4504;SDS011;2265;48.794;9.520;2024-01-15T09:48:19;6.50;;;3.00;;
4504;SDS011;2265;48.794;9.520;2024-01-15T09:50:46;11.80;;;4.10;;
4504;SDS011;2265;48.794;9.520;2024-01-15T09:53:15;8.43;;;3.40;;
4504;SDS011;2265;48.794;9.520;2024-01-15T09:55:44;11.57;;;3.40;;
4504;SDS011;2265;48.794;9.520;2024-01-15T09:58:11;9.77;;;3.30;;
4504;SDS011;2265;48.794;9.520;2024-01-15T10:00:39;5.23;;;2.73;;
4504;SDS011;2265;48.794;9.520;2024-01-15T10:03:09;7.30;;;3.63;;
4504;SDS011;2265;48.794;9.520;2024-01-15T10:05:37;7.73;;;3.33;;
4504;SDS011;2265;48.794;9.520;2024-01-15T10:08:04;6.70;;;3.23;;
4504;SDS011;2265;48.794;9.520;2024-01-15T10:10:33;7.57;;;3.43;;
4504;SDS011;2265;48.794;9.520;2024-01-15T10:13:03;5.97;;;2.67;;
4504;SDS011;2265;48.794;9.520;2024-01-15T10:15:33;6.17;;;3.43;;
4504;SDS011;2265;48.794;9.520;2024-01-15T10:18:02;7.90;;;3.40;;
4504;SDS011;2265;48.794;9.520;2024-01-15T10:20:31;7.40;;;3.77;;
4504;SDS011;2265;48.794;9.520;2024-01-15T10:22:58;6.40;;;3.10;;
4504;SDS011;2265;48.794;9.520;2024-01-15T10:25:26;8.23;;;3.10;;
4504;SDS011;2265;48.794;9.520;2024-01-15T10:28:01;5.80;;;2.97;;
4504;SDS011;2265;48.794;9.520;2024-01-15T10:30:28;13.20;;;4.00;;
4504;SDS011;2265;48.794;9.520;2024-01-15T10:32:59;7.70;;;3.07;;
4504;SDS011;2265;48.794;9.520;2024-01-15T10:35:27;9.00;;;3.63;;
4504;SDS011;2265;48.794;9.520;2024-01-15T10:37:55;10.30;;;3.63;;
4504;SDS011;2265;48.794;9.520;2024-01-15T10:40:22;6.90;;;3.47;;
4504;SDS011;2265;48.794;9.520;2024-01-15T10:42:49;7.30;;;3.03;;
4504;SDS011;2265;48.794;9.520;2024-01-15T10:45:18;8.40;;;3.23;;
4504;SDS011;2265;48.794;9.520;2024-01-15T10:47:45;9.90;;;3.47;;
4504;SDS011;2265;48.794;9.520;2024-01-15T10:50:13;5.80;;;2.77;;
4504;SDS011;2265;48.794;9.520;2024-01-15T10:52:42;9.20;;;3.10;;
4504;SDS011;2265;48.794;9.520;2024-01-15T10:55:09;6.67;;;3.07;;
4504;SDS011;2265;48.794;9.520;2024-01-15T10:57:37;6.07;;;3.07;;
4504;SDS011;2265;48.794;9.520;2024-01-15T11:00:05;6.97;;;3.03;;
4504;SDS011;2265;48.794;9.520;2024-01-15T11:02:41;5.33;;;2.57;;
4504;SDS011;2265;48.794;9.520;2024-01-15T11:05:10;7.40;;;3.00;;
4504;SDS011;2265;48.794;9.520;2024-01-15T11:07:37;5.70;;;2.87;;
4504;SDS011;2265;48.794;9.520;2024-01-15T11:13:05;8.33;;;3.07;;
4504;SDS011;2265;48.794;9.520;2024-01-15T11:18:29;6.07;;;3.37;;
4504;SDS011;2265;48.794;9.520;2024-01-15T11:23:48;4.53;;;2.73;;
4504;SDS011;2265;48.794;9.520;2024-01-15T11:29:01;6.53;;;3.13;;
4504;SDS011;2265;48.794;9.520;2024-01-15T11:37:24;5.57;;;2.87;;
4504;SDS011;2265;48.794;9.520;2024-01-15T11:39:52;5.23;;;2.73;;
4504;SDS011;2265;48.794;9.520;2024-01-15T11:42:20;5.80;;;2.90;;
4504;SDS011;2265;48.794;9.520;2024-01-15T11:44:50;7.63;;;3.63;;
4504;SDS011;2265;48.794;9.520;2024-01-15T11:47:22;6.00;;;2.87;;
4504;SDS011;2265;48.794;9.520;2024-01-15T11:50:14;6.60;;;2.97;;
4504;SDS011;2265;48.794;9.520;2024-01-15T11:52:41;5.60;;;2.80;;
4504;SDS011;2265;48.794;9.520;2024-01-15T11:55:14;5.07;;;2.67;;
4504;SDS011;2265;48.794;9.520;2024-01-15T11:57:46;14.83;;;3.10;;
4504;SDS011;2265;48.794;9.520;2024-01-15T12:00:16;9.07;;;3.30;;
4504;SDS011;2265;48.794;9.520;2024-01-15T12:02:44;8.30;;;3.50;;
4504;SDS011;2265;48.794;9.520;2024-01-15T12:05:13;8.03;;;3.10;;
4504;SDS011;2265;48.794;9.520;2024-01-15T12:07:59;10.00;;;3.40;;
4504;SDS011;2265;48.794;9.520;2024-01-15T12:10:29;7.57;;;3.60;;
4504;SDS011;2265;48.794;9.520;2024-01-15T12:12:57;7.27;;;3.23;;
4504;SDS011;2265;48.794;9.520;2024-01-15T12:15:26;6.10;;;3.13;;
4504;SDS011;2265;48.794;9.520;2024-01-15T12:17:54;6.00;;;2.93;;
4504;SDS011;2265;48.794;9.520;2024-01-15T12:20:23;7.90;;;3.10;;
4504;SDS011;2265;48.794;9.520;2024-01-15T12:22:50;6.27;;;3.03;;
4504;SDS011;2265;48.794;9.520;2024-01-15T12:25:18;7.47;;;3.27;;
4504;SDS011;2265;48.794;9.520;2024-01-15T12:27:46;6.03;;;3.40;;
4504;SDS011;2265;48.794;9.520;2024-01-15T12:30:13;5.20;;;2.60;;
4504;SDS011;2265;48.794;9.520;2024-01-15T12:32:41;7.10;;;3.20;;
4504;SDS011;2265;48.794;9.520;2024-01-15T12:35:09;8.90;;;3.53;;
4504;SDS011;2265;48.794;9.520;2024-01-15T12:37:37;7.30;;;3.37;;
4504;SDS011;2265;48.794;9.520;2024-01-15T12:40:05;5.77;;;2.60;;
4504;SDS011;2265;48.794;9.520;2024-01-15T12:42:36;7.33;;;3.30;;
4504;SDS011;2265;48.794;9.520;2024-01-15T12:45:04;8.57;;;3.50;;
4504;SDS011;2265;48.794;9.520;2024-01-15T12:47:33;5.63;;;3.20;;
4504;SDS011;2265;48.794;9.520;2024-01-15T12:50:00;3.63;;;2.70;;
4504;SDS011;2265;48.794;9.520;2024-01-15T12:52:28;10.93;;;3.53;;
4504;SDS011;2265;48.794;9.520;2024-01-15T12:54:56;5.17;;;3.17;;
4504;SDS011;2265;48.794;9.520;2024-01-15T12:57:23;7.90;;;3.47;;
4504;SDS011;2265;48.794;9.520;2024-01-15T12:59:54;7.40;;;3.57;;
4504;SDS011;2265;48.794;9.520;2024-01-15T13:02:21;6.97;;;3.50;;
4504;SDS011;2265;48.794;9.520;2024-01-15T13:04:49;12.10;;;3.10;;
4504;SDS011;2265;48.794;9.520;2024-01-15T13:07:16;8.33;;;3.40;;
4504;SDS011;2265;48.794;9.520;2024-01-15T13:09:43;5.73;;;3.10;;
4504;SDS011;2265;48.794;9.520;2024-01-15T13:12:10;9.73;;;3.60;;
4504;SDS011;2265;48.794;9.520;2024-01-15T13:14:37;7.97;;;3.50;;
4504;SDS011;2265;48.794;9.520;2024-01-15T13:17:07;8.20;;;3.20;;
4504;SDS011;2265;48.794;9.520;2024-01-15T13:19:34;7.70;;;3.10;;
4504;SDS011;2265;48.794;9.520;2024-01-15T13:22:01;9.13;;;3.40;;
4504;SDS011;2265;48.794;9.520;2024-01-15T13:24:32;9.60;;;3.87;;
4504;SDS011;2265;48.794;9.520;2024-01-15T13:27:02;10.13;;;3.00;;
4504;SDS011;2265;48.794;9.520;2024-01-15T13:29:31;9.47;;;3.73;;
4504;SDS011;2265;48.794;9.520;2024-01-15T13:31:58;7.13;;;3.10;;
4504;SDS011;2265;48.794;9.520;2024-01-15T13:34:27;6.90;;;2.80;;
4504;SDS011;2265;48.794;9.520;2024-01-15T13:36:55;6.93;;;3.30;;
4504;SDS011;2265;48.794;9.520;2024-01-15T13:39:22;9.20;;;3.70;;
4504;SDS011;2265;48.794;9.520;2024-01-15T13:41:49;7.20;;;3.67;;
4504;SDS011;2265;48.794;9.520;2024-01-15T13:44:16;5.07;;;2.83;;
4504;SDS011;2265;48.794;9.520;2024-01-15T13:46:44;6.63;;;3.40;;
4504;SDS011;2265;48.794;9.520;2024-01-15T13:49:11;5.80;;;3.20;;
4504;SDS011;2265;48.794;9.520;2024-01-15T13:51:41;5.93;;;3.17;;
4504;SDS011;2265;48.794;9.520;2024-01-15T13:54:12;8.33;;;3.60;;
4504;SDS011;2265;48.794;9.520;2024-01-15T13:56:39;7.37;;;3.43;;
4504;SDS011;2265;48.794;9.520;2024-01-15T13:59:06;6.00;;;3.20;;
4504;SDS011;2265;48.794;9.520;2024-01-15T14:01:33;11.10;;;3.60;;
4504;SDS011;2265;48.794;9.520;2024-01-15T14:04:01;7.33;;;3.00;;
4504;SDS011;2265;48.794;9.520;2024-01-15T14:06:28;6.47;;;3.20;;
4504;SDS011;2265;48.794;9.520;2024-01-15T14:08:56;6.00;;;3.40;;
4504;SDS011;2265;48.794;9.520;2024-01-15T14:11:24;8.73;;;3.20;;
4504;SDS011;2265;48.794;9.520;2024-01-15T14:13:51;7.00;;;3.20;;
4504;SDS011;2265;48.794;9.520;2024-01-15T14:16:18;5.53;;;2.90;;
4504;SDS011;2265;48.794;9.520;2024-01-15T14:18:45;6.07;;;3.07;;
4504;SDS011;2265;48.794;9.520;2024-01-15T14:21:12;8.60;;;3.03;;
4504;SDS011;2265;48.794;9.520;2024-01-15T14:23:40;4.37;;;2.90;;
4504;SDS011;2265;48.794;9.520;2024-01-15T14:26:08;9.47;;;2.90;;
4504;SDS011;2265;48.794;9.520;2024-01-15T14:28:35;7.00;;;3.23;;
4504;SDS011;2265;48.794;9.520;2024-01-15T14:31:03;4.97;;;2.60;;
4504;SDS011;2265;48.794;9.520;2024-01-15T14:33:31;7.37;;;3.23;;
4504;SDS011;2265;48.794;9.520;2024-01-15T14:35:59;6.47;;;3.00;;
4504;SDS011;2265;48.794;9.520;2024-01-15T14:38:26;5.30;;;2.70;;
4504;SDS011;2265;48.794;9.520;2024-01-15T14:40:53;6.77;;;3.30;;
4504;SDS011;2265;48.794;9.520;2024-01-15T14:43:21;7.83;;;2.97;;
4504;SDS011;2265;48.794;9.520;2024-01-15T14:45:48;7.00;;;2.90;;
4504;SDS011;2265;48.794;9.520;2024-01-15T14:48:15;5.63;;;2.87;;
4504;SDS011;2265;48.794;9.520;2024-01-15T14:50:42;5.67;;;2.97;;
4504;SDS011;2265;48.794;9.520;2024-01-15T14:53:09;6.40;;;3.00;;
4504;SDS011;2265;48.794;9.520;2024-01-15T14:55:36;7.90;;;3.47;;
4504;SDS011;2265;48.794;9.520;2024-01-15T14:58:03;7.70;;;3.00;;
4504;SDS011;2265;48.794;9.520;2024-01-15T15:00:32;5.30;;;3.50;;
4504;SDS011;2265;48.794;9.520;2024-01-15T15:03:00;8.60;;;3.30;;
4504;SDS011;2265;48.794;9.520;2024-01-15T15:05:28;7.33;;;3.40;;
4504;SDS011;2265;48.794;9.520;2024-01-15T15:07:56;9.23;;;2.97;;
4504;SDS011;2265;48.794;9.520;2024-01-15T15:10:23;8.20;;;3.70;;
4504;SDS011;2265;48.794;9.520;2024-01-15T15:12:50;9.63;;;4.10;;
4504;SDS011;2265;48.794;9.520;2024-01-15T15:15:18;9.70;;;4.30;;
4504;SDS011;2265;48.794;9.520;2024-01-15T15:17:46;12.67;;;4.90;;
4504;SDS011;2265;48.794;9.520;2024-01-15T15:20:15;7.30;;;3.77;;
4504;SDS011;2265;48.794;9.520;2024-01-15T15:22:43;11.83;;;4.80;;
4504;SDS011;2265;48.794;9.520;2024-01-15T15:25:11;8.10;;;4.37;;
4504;SDS011;2265;48.794;9.520;2024-01-15T15:27:38;7.00;;;3.93;;
4504;SDS011;2265;48.794;9.520;2024-01-15T15:30:06;7.70;;;3.70;;